sensor_id;sensor_type;location;lat;lon;timestamp;temperature;humidity
37340;DHT22;23223;51.006;7.610;2022-08-19T00:00:21;16.00;99.90
37340;DHT22;23223;51.006;7.610;2022-08-19T00:02:47;16.00;99.90
37340;DHT22;23223;51.006;7.610;2022-08-19T00:05:14;16.00;99.90
37340;DHT22;23223;51.006;7.610;2022-08-19T00:07:42;15.90;99.90
37340;DHT22;23223;51.006;7.610;2022-08-19T00:10:10;16.00;99.90
37340;DHT22;23223;51.006;7.610;2022-08-19T00:12:36;16.10;99.90
37340;DHT22;23223;51.006;7.610;2022-08-19T00:15:07;16.30;99.90
37340;DHT22;23223;51.006;7.610;2022-08-19T00:17:38;16.30;99.90
37340;DHT22;23223;51.006;7.610;2022-08-19T00:20:05;16.10;99.90
37340;DHT22;23223;51.006;7.610;2022-08-19T00:22:31;16.00;99.90
37340;DHT22;23223;51.006;7.610;2022-08-19T00:24:58;15.90;99.90
37340;DHT22;23223;51.006;7.610;2022-08-19T00:27:24;15.80;99.90
37340;DHT22;23223;51.006;7.610;2022-08-19T00:29:50;15.70;99.90
37340;DHT22;23223;51.006;7.610;2022-08-19T00:32:17;15.60;99.90
37340;DHT22;23223;51.006;7.610;2022-08-19T00:34:43;15.50;99.90
37340;DHT22;23223;51.006;7.610;2022-08-19T00:37:09;15.40;99.90
37340;DHT22;23223;51.006;7.610;2022-08-19T00:39:36;15.30;99.90
37340;DHT22;23223;51.006;7.610;2022-08-19T00:42:02;15.20;99.90
37340;DHT22;23223;51.006;7.610;2022-08-19T00:44:29;15.10;99.90
37340;DHT22;23223;51.006;7.610;2022-08-19T00:46:57;15.10;99.90
37340;DHT22;23223;51.006;7.610;2022-08-19T00:52:04;14.90;99.90
37340;DHT22;23223;51.006;7.610;2022-08-19T00:54:31;14.80;99.90
37340;DHT22;23223;51.006;7.610;2022-08-19T00:56:59;14.80;99.90
37340;DHT22;23223;51.006;7.610;2022-08-19T00:59:28;15.00;99.90
37340;DHT22;23223;51.006;7.610;2022-08-19T01:01:54;15.10;99.90
37340;DHT22;23223;51.006;7.610;2022-08-19T01:04:20;15.10;99.90
37340;DHT22;23223;51.006;7.610;2022-08-19T01:06:46;15.10;99.90
37340;DHT22;23223;51.006;7.610;2022-08-19T01:09:12;15.20;99.90
37340;DHT22;23223;51.006;7.610;2022-08-19T01:11:41;15.10;99.90
37340;DHT22;23223;51.006;7.610;2022-08-19T01:14:09;15.10;99.90
37340;DHT22;23223;51.006;7.610;2022-08-19T01:16:36;15.10;99.90
37340;DHT22;23223;51.006;7.610;2022-08-19T01:19:06;15.00;99.90
37340;DHT22;23223;51.006;7.610;2022-08-19T01:21:42;15.00;99.90
37340;DHT22;23223;51.006;7.610;2022-08-19T01:24:09;15.10;99.90
37340;DHT22;23223;51.006;7.610;2022-08-19T01:26:40;15.50;99.90
37340;DHT22;23223;51.006;7.610;2022-08-19T01:29:08;15.60;99.90
37340;DHT22;23223;51.006;7.610;2022-08-19T01:31:35;15.80;99.90
37340;DHT22;23223;51.006;7.610;2022-08-19T01:34:03;15.80;99.90
37340;DHT22;23223;51.006;7.610;2022-08-19T01:36:37;15.80;99.90
37340;DHT22;23223;51.006;7.610;2022-08-19T01:39:07;16.00;99.90
37340;DHT22;23223;51.006;7.610;2022-08-19T01:41:34;16.40;99.90
37340;DHT22;23223;51.006;7.610;2022-08-19T01:44:00;16.40;99.90
37340;DHT22;23223;51.006;7.610;2022-08-19T01:46:29;16.10;99.90
37340;DHT22;23223;51.006;7.610;2022-08-19T01:48:54;15.90;99.90
37340;DHT22;23223;51.006;7.610;2022-08-19T01:51:20;15.70;99.90
37340;DHT22;23223;51.006;7.610;2022-08-19T01:53:50;15.60;99.90
37340;DHT22;23223;51.006;7.610;2022-08-19T01:56:17;16.10;99.90
37340;DHT22;23223;51.006;7.610;2022-08-19T01:58:49;16.20;99.90
37340;DHT22;23223;51.006;7.610;2022-08-19T02:01:17;16.00;99.90
37340;DHT22;23223;51.006;7.610;2022-08-19T02:03:42;15.80;99.90
37340;DHT22;23223;51.006;7.610;2022-08-19T02:06:08;15.60;99.90
37340;DHT22;23223;51.006;7.610;2022-08-19T02:08:36;15.70;99.90
37340;DHT22;23223;51.006;7.610;2022-08-19T02:11:03;15.90;99.90
37340;DHT22;23223;51.006;7.610;2022-08-19T02:13:29;16.10;99.90
37340;DHT22;23223;51.006;7.610;2022-08-19T02:15:55;15.90;99.90
37340;DHT22;23223;51.006;7.610;2022-08-19T02:18:21;15.70;99.90
37340;DHT22;23223;51.006;7.610;2022-08-19T02:20:47;15.50;99.90
37340;DHT22;23223;51.006;7.610;2022-08-19T02:29:57;15.60;99.90
37340;DHT22;23223;51.006;7.610;2022-08-19T02:32:23;16.20;99.90
37340;DHT22;23223;51.006;7.610;2022-08-19T02:34:49;16.40;99.90
37340;DHT22;23223;51.006;7.610;2022-08-19T02:37:15;16.40;99.90
37340;DHT22;23223;51.006;7.610;2022-08-19T02:39:59;16.20;99.90
37340;DHT22;23223;51.006;7.610;2022-08-19T02:42:25;15.90;99.90
37340;DHT22;23223;51.006;7.610;2022-08-19T02:44:51;15.70;99.90
37340;DHT22;23223;51.006;7.610;2022-08-19T02:47:20;15.40;99.90
37340;DHT22;23223;51.006;7.610;2022-08-19T02:49:46;15.20;99.90
37340;DHT22;23223;51.006;7.610;2022-08-19T02:52:15;15.10;99.90
37340;DHT22;23223;51.006;7.610;2022-08-19T02:54:41;14.90;99.90
37340;DHT22;23223;51.006;7.610;2022-08-19T02:57:07;14.80;99.90
37340;DHT22;23223;51.006;7.610;2022-08-19T02:59:33;14.70;99.90
37340;DHT22;23223;51.006;7.610;2022-08-19T03:01:59;14.70;99.90
37340;DHT22;23223;51.006;7.610;2022-08-19T03:04:25;14.60;99.90
37340;DHT22;23223;51.006;7.610;2022-08-19T03:06:51;14.70;99.90
37340;DHT22;23223;51.006;7.610;2022-08-19T03:09:19;14.80;99.90
37340;DHT22;23223;51.006;7.610;2022-08-19T03:11:45;14.80;99.90
37340;DHT22;23223;51.006;7.610;2022-08-19T03:14:11;14.70;99.90
37340;DHT22;23223;51.006;7.610;2022-08-19T03:16:49;14.70;99.90
37340;DHT22;23223;51.006;7.610;2022-08-19T03:19:17;14.80;99.90
37340;DHT22;23223;51.006;7.610;2022-08-19T03:21:44;14.90;99.90
37340;DHT22;23223;51.006;7.610;2022-08-19T03:24:11;14.90;99.90
37340;DHT22;23223;51.006;7.610;2022-08-19T03:26:42;14.80;99.90
37340;DHT22;23223;51.006;7.610;2022-08-19T03:29:08;14.70;99.90
37340;DHT22;23223;51.006;7.610;2022-08-19T03:31:37;14.60;99.90
37340;DHT22;23223;51.006;7.610;2022-08-19T03:34:03;14.50;99.90
37340;DHT22;23223;51.006;7.610;2022-08-19T03:36:29;14.40;99.90
37340;DHT22;23223;51.006;7.610;2022-08-19T03:38:57;14.40;99.90
37340;DHT22;23223;51.006;7.610;2022-08-19T03:41:29;14.40;99.90
37340;DHT22;23223;51.006;7.610;2022-08-19T03:43:56;14.40;99.90
37340;DHT22;23223;51.006;7.610;2022-08-19T03:46:25;14.40;99.90
37340;DHT22;23223;51.006;7.610;2022-08-19T03:48:53;14.40;99.90
37340;DHT22;23223;51.006;7.610;2022-08-19T03:51:28;14.30;99.90
37340;DHT22;23223;51.006;7.610;2022-08-19T03:53:56;14.20;99.90
37340;DHT22;23223;51.006;7.610;2022-08-19T03:56:22;14.20;99.90
37340;DHT22;23223;51.006;7.610;2022-08-19T03:58:48;14.10;99.90
37340;DHT22;23223;51.006;7.610;2022-08-19T04:01:19;14.10;99.90
37340;DHT22;23223;51.006;7.610;2022-08-19T04:03:46;14.00;99.90
37340;DHT22;23223;51.006;7.610;2022-08-19T04:06:21;14.00;99.90
37340;DHT22;23223;51.006;7.610;2022-08-19T04:08:49;14.00;99.90
37340;DHT22;23223;51.006;7.610;2022-08-19T04:11:18;14.20;99.90
37340;DHT22;23223;51.006;7.610;2022-08-19T04:13:46;14.40;99.90
37340;DHT22;23223;51.006;7.610;2022-08-19T04:16:13;14.50;99.90
37340;DHT22;23223;51.006;7.610;2022-08-19T04:18:40;14.40;99.90
37340;DHT22;23223;51.006;7.610;2022-08-19T04:21:07;14.30;99.90
37340;DHT22;23223;51.006;7.610;2022-08-19T04:23:34;14.20;99.90
37340;DHT22;23223;51.006;7.610;2022-08-19T04:26:03;14.20;99.90
37340;DHT22;23223;51.006;7.610;2022-08-19T04:28:29;14.40;99.90
37340;DHT22;23223;51.006;7.610;2022-08-19T04:30:55;14.50;99.90
37340;DHT22;23223;51.006;7.610;2022-08-19T04:33:23;14.40;99.90
37340;DHT22;23223;51.006;7.610;2022-08-19T04:35:51;14.40;99.90
37340;DHT22;23223;51.006;7.610;2022-08-19T04:38:20;14.60;99.90
37340;DHT22;23223;51.006;7.610;2022-08-19T04:40:50;14.50;99.90
37340;DHT22;23223;51.006;7.610;2022-08-19T04:43:37;14.40;99.90
37340;DHT22;23223;51.006;7.610;2022-08-19T04:46:06;14.20;99.90
37340;DHT22;23223;51.006;7.610;2022-08-19T04:48:32;14.50;99.90
37340;DHT22;23223;51.006;7.610;2022-08-19T04:50:59;14.80;99.90
37340;DHT22;23223;51.006;7.610;2022-08-19T04:53:29;14.90;99.90
37340;DHT22;23223;51.006;7.610;2022-08-19T04:55:57;14.80;99.90
37340;DHT22;23223;51.006;7.610;2022-08-19T04:58:25;14.60;99.90
37340;DHT22;23223;51.006;7.610;2022-08-19T05:00:52;14.50;99.90
37340;DHT22;23223;51.006;7.610;2022-08-19T05:03:19;14.70;99.90
37340;DHT22;23223;51.006;7.610;2022-08-19T05:05:47;14.90;99.90
37340;DHT22;23223;51.006;7.610;2022-08-19T05:08:17;15.00;99.90
37340;DHT22;23223;51.006;7.610;2022-08-19T05:10:50;14.90;99.90
37340;DHT22;23223;51.006;7.610;2022-08-19T05:13:18;14.80;99.90
37340;DHT22;23223;51.006;7.610;2022-08-19T05:15:54;14.70;99.90
37340;DHT22;23223;51.006;7.610;2022-08-19T05:18:20;14.70;99.90
37340;DHT22;23223;51.006;7.610;2022-08-19T05:21:12;15.00;99.90
37340;DHT22;23223;51.006;7.610;2022-08-19T05:23:58;15.20;99.90
37340;DHT22;23223;51.006;7.610;2022-08-19T05:26:25;15.10;99.90
37340;DHT22;23223;51.006;7.610;2022-08-19T05:28:55;15.10;99.90
37340;DHT22;23223;51.006;7.610;2022-08-19T05:31:21;15.00;99.90
37340;DHT22;23223;51.006;7.610;2022-08-19T05:33:47;15.00;99.90
37340;DHT22;23223;51.006;7.610;2022-08-19T05:36:14;15.00;99.90
37340;DHT22;23223;51.006;7.610;2022-08-19T05:38:40;15.10;99.90
37340;DHT22;23223;51.006;7.610;2022-08-19T05:41:07;15.10;99.90
37340;DHT22;23223;51.006;7.610;2022-08-19T05:43:34;15.20;99.90
37340;DHT22;23223;51.006;7.610;2022-08-19T05:46:00;15.40;99.90
37340;DHT22;23223;51.006;7.610;2022-08-19T05:48:26;15.50;99.90
37340;DHT22;23223;51.006;7.610;2022-08-19T05:50:52;15.60;99.90
37340;DHT22;23223;51.006;7.610;2022-08-19T05:53:18;15.80;99.90
37340;DHT22;23223;51.006;7.610;2022-08-19T05:55:44;16.00;99.90
37340;DHT22;23223;51.006;7.610;2022-08-19T05:58:10;16.20;99.90
37340;DHT22;23223;51.006;7.610;2022-08-19T06:00:37;16.40;99.90
37340;DHT22;23223;51.006;7.610;2022-08-19T06:03:04;16.60;99.90
37340;DHT22;23223;51.006;7.610;2022-08-19T06:05:30;16.70;99.90
37340;DHT22;23223;51.006;7.610;2022-08-19T06:07:57;17.10;99.90
37340;DHT22;23223;51.006;7.610;2022-08-19T06:10:25;17.40;99.90
37340;DHT22;23223;51.006;7.610;2022-08-19T06:12:52;17.50;99.90
37340;DHT22;23223;51.006;7.610;2022-08-19T06:15:18;17.50;99.90
37340;DHT22;23223;51.006;7.610;2022-08-19T06:17:44;17.60;99.90
37340;DHT22;23223;51.006;7.610;2022-08-19T06:20:12;17.90;99.90
37340;DHT22;23223;51.006;7.610;2022-08-19T06:22:44;18.30;99.90
37340;DHT22;23223;51.006;7.610;2022-08-19T06:25:12;18.50;99.90
37340;DHT22;23223;51.006;7.610;2022-08-19T06:27:38;18.80;99.90
37340;DHT22;23223;51.006;7.610;2022-08-19T06:30:05;19.20;99.90
37340;DHT22;23223;51.006;7.610;2022-08-19T06:32:31;19.50;99.90
37340;DHT22;23223;51.006;7.610;2022-08-19T06:34:57;19.80;99.90
37340;DHT22;23223;51.006;7.610;2022-08-19T06:37:23;20.40;99.90
37340;DHT22;23223;51.006;7.610;2022-08-19T06:39:50;20.70;99.90
37340;DHT22;23223;51.006;7.610;2022-08-19T06:42:16;20.70;99.90
37340;DHT22;23223;51.006;7.610;2022-08-19T06:44:46;21.00;99.90
37340;DHT22;23223;51.006;7.610;2022-08-19T06:47:16;21.30;99.90
37340;DHT22;23223;51.006;7.610;2022-08-19T06:49:43;21.70;99.90
37340;DHT22;23223;51.006;7.610;2022-08-19T06:52:10;22.20;99.90
37340;DHT22;23223;51.006;7.610;2022-08-19T06:54:41;22.50;99.90
37340;DHT22;23223;51.006;7.610;2022-08-19T06:57:10;22.70;99.90
37340;DHT22;23223;51.006;7.610;2022-08-19T06:59:40;22.90;99.90
37340;DHT22;23223;51.006;7.610;2022-08-19T07:02:06;23.10;99.90
37340;DHT22;23223;51.006;7.610;2022-08-19T07:04:36;23.10;99.90
37340;DHT22;23223;51.006;7.610;2022-08-19T07:07:11;23.00;99.90
37340;DHT22;23223;51.006;7.610;2022-08-19T07:09:40;23.00;99.90
37340;DHT22;23223;51.006;7.610;2022-08-19T07:12:08;23.00;99.90
37340;DHT22;23223;51.006;7.610;2022-08-19T07:14:36;23.00;99.90
37340;DHT22;23223;51.006;7.610;2022-08-19T07:17:07;23.00;99.90
37340;DHT22;23223;51.006;7.610;2022-08-19T07:19:34;23.40;99.90
37340;DHT22;23223;51.006;7.610;2022-08-19T07:22:03;23.80;99.90
37340;DHT22;23223;51.006;7.610;2022-08-19T07:24:30;24.00;99.90
37340;DHT22;23223;51.006;7.610;2022-08-19T07:27:00;24.40;99.90
37340;DHT22;23223;51.006;7.610;2022-08-19T07:29:32;24.70;99.90
37340;DHT22;23223;51.006;7.610;2022-08-19T07:31:59;24.90;99.90
37340;DHT22;23223;51.006;7.610;2022-08-19T07:34:27;25.10;99.90
37340;DHT22;23223;51.006;7.610;2022-08-19T07:36:54;25.40;99.90
37340;DHT22;23223;51.006;7.610;2022-08-19T07:39:25;25.70;99.90
37340;DHT22;23223;51.006;7.610;2022-08-19T07:41:51;25.90;99.90
37340;DHT22;23223;51.006;7.610;2022-08-19T07:44:18;26.30;99.90
37340;DHT22;23223;51.006;7.610;2022-08-19T07:46:49;26.50;99.90
37340;DHT22;23223;51.006;7.610;2022-08-19T07:49:17;26.70;99.90
37340;DHT22;23223;51.006;7.610;2022-08-19T07:51:48;27.00;99.90
37340;DHT22;23223;51.006;7.610;2022-08-19T07:54:16;27.10;99.90
37340;DHT22;23223;51.006;7.610;2022-08-19T07:56:43;27.30;99.90
37340;DHT22;23223;51.006;7.610;2022-08-19T07:59:09;27.40;99.90
37340;DHT22;23223;51.006;7.610;2022-08-19T08:01:35;27.50;99.90
37340;DHT22;23223;51.006;7.610;2022-08-19T08:04:02;27.60;99.90
37340;DHT22;23223;51.006;7.610;2022-08-19T08:06:49;27.90;99.90
37340;DHT22;23223;51.006;7.610;2022-08-19T08:09:38;27.70;99.90
37340;DHT22;23223;51.006;7.610;2022-08-19T08:12:10;27.50;99.90
37340;DHT22;23223;51.006;7.610;2022-08-19T08:17:10;27.40;99.90
37340;DHT22;23223;51.006;7.610;2022-08-19T08:19:36;27.60;99.90
37340;DHT22;23223;51.006;7.610;2022-08-19T08:22:03;27.70;99.90
37340;DHT22;23223;51.006;7.610;2022-08-19T08:24:31;27.90;99.90
37340;DHT22;23223;51.006;7.610;2022-08-19T08:26:59;28.00;99.90
37340;DHT22;23223;51.006;7.610;2022-08-19T08:29:29;28.30;99.90
37340;DHT22;23223;51.006;7.610;2022-08-19T08:31:56;28.50;99.90
37340;DHT22;23223;51.006;7.610;2022-08-19T08:34:23;28.50;99.90
37340;DHT22;23223;51.006;7.610;2022-08-19T08:36:49;28.70;99.90
37340;DHT22;23223;51.006;7.610;2022-08-19T08:39:18;28.90;99.90
37340;DHT22;23223;51.006;7.610;2022-08-19T08:44:58;29.00;99.90
37340;DHT22;23223;51.006;7.610;2022-08-19T08:47:25;29.20;99.90
37340;DHT22;23223;51.006;7.610;2022-08-19T08:49:59;29.50;99.90
37340;DHT22;23223;51.006;7.610;2022-08-19T08:52:39;29.30;99.90
37340;DHT22;23223;51.006;7.610;2022-08-19T08:55:13;28.40;99.90
37340;DHT22;23223;51.006;7.610;2022-08-19T09:03:21;28.30;99.90
37340;DHT22;23223;51.006;7.610;2022-08-19T09:08:44;29.20;99.90
37340;DHT22;23223;51.006;7.610;2022-08-19T09:11:46;29.20;99.90
37340;DHT22;23223;51.006;7.610;2022-08-19T09:14:33;29.40;99.90
37340;DHT22;23223;51.006;7.610;2022-08-19T09:17:00;29.80;99.90
37340;DHT22;23223;51.006;7.610;2022-08-19T09:19:30;30.00;99.90
37340;DHT22;23223;51.006;7.610;2022-08-19T09:21:56;30.00;99.90
37340;DHT22;23223;51.006;7.610;2022-08-19T09:24:22;30.30;99.90
37340;DHT22;23223;51.006;7.610;2022-08-19T09:26:48;30.20;99.90
37340;DHT22;23223;51.006;7.610;2022-08-19T09:29:14;29.80;99.90
37340;DHT22;23223;51.006;7.610;2022-08-19T09:31:40;29.90;99.90
37340;DHT22;23223;51.006;7.610;2022-08-19T09:34:06;29.70;99.90
37340;DHT22;23223;51.006;7.610;2022-08-19T09:36:32;29.60;99.90
37340;DHT22;23223;51.006;7.610;2022-08-19T09:38:59;29.40;99.90
37340;DHT22;23223;51.006;7.610;2022-08-19T09:41:26;29.00;99.90
37340;DHT22;23223;51.006;7.610;2022-08-19T09:43:54;29.10;99.90
37340;DHT22;23223;51.006;7.610;2022-08-19T09:46:26;29.50;99.90
37340;DHT22;23223;51.006;7.610;2022-08-19T09:48:52;30.10;99.90
37340;DHT22;23223;51.006;7.610;2022-08-19T09:51:24;30.40;99.90
37340;DHT22;23223;51.006;7.610;2022-08-19T09:53:50;31.00;99.90
37340;DHT22;23223;51.006;7.610;2022-08-19T09:56:18;31.40;99.90
37340;DHT22;23223;51.006;7.610;2022-08-19T09:58:46;31.30;99.90
37340;DHT22;23223;51.006;7.610;2022-08-19T10:01:20;31.20;99.90
37340;DHT22;23223;51.006;7.610;2022-08-19T10:03:50;31.10;99.90
37340;DHT22;23223;51.006;7.610;2022-08-19T10:06:17;30.90;99.90
37340;DHT22;23223;51.006;7.610;2022-08-19T10:08:43;30.30;99.90
37340;DHT22;23223;51.006;7.610;2022-08-19T10:11:10;30.40;99.90
37340;DHT22;23223;51.006;7.610;2022-08-19T10:13:37;30.70;99.90
37340;DHT22;23223;51.006;7.610;2022-08-19T10:16:09;31.20;99.90
37340;DHT22;23223;51.006;7.610;2022-08-19T10:18:35;31.70;99.90
37340;DHT22;23223;51.006;7.610;2022-08-19T10:21:05;32.00;99.90
37340;DHT22;23223;51.006;7.610;2022-08-19T10:23:37;31.70;99.90
37340;DHT22;23223;51.006;7.610;2022-08-19T10:26:05;31.20;99.90
37340;DHT22;23223;51.006;7.610;2022-08-19T10:28:33;30.80;99.90
37340;DHT22;23223;51.006;7.610;2022-08-19T10:31:04;31.20;99.90
37340;DHT22;23223;51.006;7.610;2022-08-19T10:33:31;31.70;99.90
37340;DHT22;23223;51.006;7.610;2022-08-19T10:36:00;32.10;99.00
37340;DHT22;23223;51.006;7.610;2022-08-19T10:38:30;31.60;99.60
37340;DHT22;23223;51.006;7.610;2022-08-19T10:40:57;31.60;98.70
37340;DHT22;23223;51.006;7.610;2022-08-19T10:43:23;31.60;98.20
37340;DHT22;23223;51.006;7.610;2022-08-19T10:45:54;31.60;97.50
37340;DHT22;23223;51.006;7.610;2022-08-19T10:48:22;32.10;97.70
37340;DHT22;23223;51.006;7.610;2022-08-19T10:50:48;32.30;96.20
37340;DHT22;23223;51.006;7.610;2022-08-19T10:53:32;32.40;95.20
37340;DHT22;23223;51.006;7.610;2022-08-19T10:55:58;32.20;93.40
37340;DHT22;23223;51.006;7.610;2022-08-19T10:58:42;32.40;92.50
37340;DHT22;23223;51.006;7.610;2022-08-19T11:01:08;32.40;92.80
37340;DHT22;23223;51.006;7.610;2022-08-19T11:03:35;32.80;91.80
37340;DHT22;23223;51.006;7.610;2022-08-19T11:06:03;33.20;92.30
37340;DHT22;23223;51.006;7.610;2022-08-19T11:08:29;32.60;92.50
37340;DHT22;23223;51.006;7.610;2022-08-19T11:10:59;32.60;93.10
37340;DHT22;23223;51.006;7.610;2022-08-19T11:13:37;32.80;92.70
37340;DHT22;23223;51.006;7.610;2022-08-19T11:16:07;32.90;92.30
37340;DHT22;23223;51.006;7.610;2022-08-19T11:18:36;33.10;93.90
37340;DHT22;23223;51.006;7.610;2022-08-19T11:21:11;33.20;92.00
37340;DHT22;23223;51.006;7.610;2022-08-19T11:23:37;33.50;91.70
37340;DHT22;23223;51.006;7.610;2022-08-19T11:26:03;33.70;90.40
37340;DHT22;23223;51.006;7.610;2022-08-19T11:28:29;33.50;91.00
37340;DHT22;23223;51.006;7.610;2022-08-19T11:30:55;33.40;84.30
37340;DHT22;23223;51.006;7.610;2022-08-19T11:33:20;34.00;86.10
37340;DHT22;23223;51.006;7.610;2022-08-19T11:35:46;34.20;83.30
37340;DHT22;23223;51.006;7.610;2022-08-19T11:38:15;34.40;85.50
37340;DHT22;23223;51.006;7.610;2022-08-19T11:40:41;34.80;85.90
37340;DHT22;23223;51.006;7.610;2022-08-19T11:43:08;34.50;85.90
37340;DHT22;23223;51.006;7.610;2022-08-19T11:45:35;34.00;83.10
37340;DHT22;23223;51.006;7.610;2022-08-19T11:48:01;33.40;84.50
37340;DHT22;23223;51.006;7.610;2022-08-19T11:50:27;32.70;89.20
37340;DHT22;23223;51.006;7.610;2022-08-19T11:52:56;32.20;89.30
37340;DHT22;23223;51.006;7.610;2022-08-19T11:55:23;31.80;91.70
37340;DHT22;23223;51.006;7.610;2022-08-19T11:57:49;31.20;91.10
37340;DHT22;23223;51.006;7.610;2022-08-19T12:00:15;30.80;93.20
37340;DHT22;23223;51.006;7.610;2022-08-19T12:02:41;30.60;94.10
37340;DHT22;23223;51.006;7.610;2022-08-19T12:05:08;30.20;93.10
37340;DHT22;23223;51.006;7.610;2022-08-19T12:07:34;30.20;93.50
37340;DHT22;23223;51.006;7.610;2022-08-19T12:10:00;30.10;94.90
37340;DHT22;23223;51.006;7.610;2022-08-19T12:12:27;29.90;95.90
37340;DHT22;23223;51.006;7.610;2022-08-19T12:14:53;29.70;96.90
37340;DHT22;23223;51.006;7.610;2022-08-19T12:17:26;29.50;97.70
37340;DHT22;23223;51.006;7.610;2022-08-19T12:19:53;29.30;98.30
37340;DHT22;23223;51.006;7.610;2022-08-19T12:22:19;29.00;98.70
37340;DHT22;23223;51.006;7.610;2022-08-19T12:24:46;28.70;99.60
37340;DHT22;23223;51.006;7.610;2022-08-19T12:27:12;28.60;99.90
37340;DHT22;23223;51.006;7.610;2022-08-19T12:29:37;29.10;99.90
37340;DHT22;23223;51.006;7.610;2022-08-19T12:32:06;29.80;98.90
37340;DHT22;23223;51.006;7.610;2022-08-19T12:34:33;30.60;96.40
37340;DHT22;23223;51.006;7.610;2022-08-19T12:37:02;31.20;95.80
37340;DHT22;23223;51.006;7.610;2022-08-19T12:39:28;31.90;94.50
37340;DHT22;23223;51.006;7.610;2022-08-19T12:41:55;32.20;93.60
37340;DHT22;23223;51.006;7.610;2022-08-19T12:44:22;32.50;92.10
37340;DHT22;23223;51.006;7.610;2022-08-19T12:46:53;32.90;91.50
37340;DHT22;23223;51.006;7.610;2022-08-19T12:49:19;33.20;90.90
37340;DHT22;23223;51.006;7.610;2022-08-19T12:51:44;33.70;88.20
37340;DHT22;23223;51.006;7.610;2022-08-19T12:54:11;33.80;84.80
37340;DHT22;23223;51.006;7.610;2022-08-19T12:56:37;34.00;82.90
37340;DHT22;23223;51.006;7.610;2022-08-19T12:59:04;34.20;84.90
37340;DHT22;23223;51.006;7.610;2022-08-19T13:01:30;34.20;81.00
37340;DHT22;23223;51.006;7.610;2022-08-19T13:03:59;34.20;80.90
37340;DHT22;23223;51.006;7.610;2022-08-19T13:06:26;34.20;79.70
37340;DHT22;23223;51.006;7.610;2022-08-19T13:08:52;34.20;82.20
37340;DHT22;23223;51.006;7.610;2022-08-19T13:11:20;34.10;81.10
37340;DHT22;23223;51.006;7.610;2022-08-19T13:13:48;34.30;80.80
37340;DHT22;23223;51.006;7.610;2022-08-19T13:16:16;34.40;81.20
37340;DHT22;23223;51.006;7.610;2022-08-19T13:18:44;34.60;79.30
37340;DHT22;23223;51.006;7.610;2022-08-19T13:21:10;35.00;79.60
37340;DHT22;23223;51.006;7.610;2022-08-19T13:23:40;35.10;77.10
37340;DHT22;23223;51.006;7.610;2022-08-19T13:26:07;35.30;73.60
37340;DHT22;23223;51.006;7.610;2022-08-19T13:28:34;35.30;70.70
37340;DHT22;23223;51.006;7.610;2022-08-19T13:31:20;35.30;72.40
37340;DHT22;23223;51.006;7.610;2022-08-19T13:34:05;35.60;72.00
37340;DHT22;23223;51.006;7.610;2022-08-19T13:36:32;35.40;72.00
37340;DHT22;23223;51.006;7.610;2022-08-19T13:38:59;35.40;73.10
37340;DHT22;23223;51.006;7.610;2022-08-19T13:41:25;35.30;71.30
37340;DHT22;23223;51.006;7.610;2022-08-19T13:43:52;35.40;70.70
37340;DHT22;23223;51.006;7.610;2022-08-19T13:46:18;35.40;70.20
37340;DHT22;23223;51.006;7.610;2022-08-19T13:48:46;35.20;71.00
37340;DHT22;23223;51.006;7.610;2022-08-19T13:51:15;35.40;72.30
37340;DHT22;23223;51.006;7.610;2022-08-19T13:53:42;34.90;68.30
37340;DHT22;23223;51.006;7.610;2022-08-19T13:56:15;34.80;68.90
37340;DHT22;23223;51.006;7.610;2022-08-19T13:58:43;34.60;71.80
37340;DHT22;23223;51.006;7.610;2022-08-19T14:01:09;35.00;71.70
37340;DHT22;23223;51.006;7.610;2022-08-19T14:03:36;35.00;72.40
37340;DHT22;23223;51.006;7.610;2022-08-19T14:06:02;34.80;72.40
37340;DHT22;23223;51.006;7.610;2022-08-19T14:08:28;35.20;72.30
37340;DHT22;23223;51.006;7.610;2022-08-19T14:10:55;35.30;71.30
37340;DHT22;23223;51.006;7.610;2022-08-19T14:13:22;35.10;71.60
37340;DHT22;23223;51.006;7.610;2022-08-19T14:15:48;35.20;68.20
37340;DHT22;23223;51.006;7.610;2022-08-19T14:18:16;35.10;69.30
37340;DHT22;23223;51.006;7.610;2022-08-19T14:20:43;34.90;68.00
37340;DHT22;23223;51.006;7.610;2022-08-19T14:23:10;34.30;70.10
37340;DHT22;23223;51.006;7.610;2022-08-19T14:25:39;34.00;69.60
37340;DHT22;23223;51.006;7.610;2022-08-19T14:28:05;33.50;70.10
37340;DHT22;23223;51.006;7.610;2022-08-19T14:30:34;33.00;71.20
37340;DHT22;23223;51.006;7.610;2022-08-19T14:33:04;33.30;72.70
37340;DHT22;23223;51.006;7.610;2022-08-19T14:35:32;33.60;72.20
37340;DHT22;23223;51.006;7.610;2022-08-19T14:38:01;34.30;72.10
37340;DHT22;23223;51.006;7.610;2022-08-19T14:40:30;34.60;70.40
37340;DHT22;23223;51.006;7.610;2022-08-19T14:42:59;34.30;68.10
37340;DHT22;23223;51.006;7.610;2022-08-19T14:45:34;34.00;68.40
37340;DHT22;23223;51.006;7.610;2022-08-19T14:48:01;33.80;68.80
37340;DHT22;23223;51.006;7.610;2022-08-19T14:50:28;33.60;69.80
37340;DHT22;23223;51.006;7.610;2022-08-19T14:52:59;33.20;70.50
37340;DHT22;23223;51.006;7.610;2022-08-19T14:55:26;33.20;69.50
37340;DHT22;23223;51.006;7.610;2022-08-19T14:57:52;32.90;70.50
37340;DHT22;23223;51.006;7.610;2022-08-19T15:00:18;32.90;70.50
37340;DHT22;23223;51.006;7.610;2022-08-19T15:02:44;32.70;71.50
37340;DHT22;23223;51.006;7.610;2022-08-19T15:05:11;32.90;71.50
37340;DHT22;23223;51.006;7.610;2022-08-19T15:07:38;32.70;69.10
37340;DHT22;23223;51.006;7.610;2022-08-19T15:10:06;32.70;70.30
37340;DHT22;23223;51.006;7.610;2022-08-19T15:12:37;32.30;70.50
37340;DHT22;23223;51.006;7.610;2022-08-19T15:15:07;31.70;72.30
37340;DHT22;23223;51.006;7.610;2022-08-19T15:17:34;31.80;73.90
37340;DHT22;23223;51.006;7.610;2022-08-19T15:20:04;31.90;73.10
37340;DHT22;23223;51.006;7.610;2022-08-19T15:22:30;31.50;73.80
37340;DHT22;23223;51.006;7.610;2022-08-19T15:24:57;31.20;74.30
37340;DHT22;23223;51.006;7.610;2022-08-19T15:27:23;31.00;75.50
37340;DHT22;23223;51.006;7.610;2022-08-19T15:29:50;30.70;76.80
37340;DHT22;23223;51.006;7.610;2022-08-19T15:32:16;30.30;78.50
37340;DHT22;23223;51.006;7.610;2022-08-19T15:34:42;30.00;79.30
37340;DHT22;23223;51.006;7.610;2022-08-19T15:37:09;30.00;81.50
37340;DHT22;23223;51.006;7.610;2022-08-19T15:39:35;30.10;79.90
37340;DHT22;23223;51.006;7.610;2022-08-19T15:42:02;30.20;80.50
37340;DHT22;23223;51.006;7.610;2022-08-19T15:44:29;30.20;80.70
37340;DHT22;23223;51.006;7.610;2022-08-19T15:46:55;30.00;81.20
37340;DHT22;23223;51.006;7.610;2022-08-19T15:49:22;30.10;80.50
37340;DHT22;23223;51.006;7.610;2022-08-19T15:51:49;30.40;81.30
37340;DHT22;23223;51.006;7.610;2022-08-19T15:54:20;30.40;81.30
37340;DHT22;23223;51.006;7.610;2022-08-19T15:56:48;30.50;81.00
37340;DHT22;23223;51.006;7.610;2022-08-19T15:59:34;30.50;80.20